createdAt,value
2018-10-15T00:01:31.812Z,76.85
2018-10-15T00:04:00.038Z,77.42
2018-10-15T00:06:28.335Z,77.89
2018-10-15T00:08:56.596Z,78.30
2018-10-15T00:11:24.971Z,78.90
2018-10-15T00:13:53.098Z,79.34
2018-10-15T00:16:21.289Z,79.02
2018-10-15T00:18:49.458Z,79.28
2018-10-15T00:21:17.643Z,79.22
2018-10-15T00:23:45.795Z,79.18
2018-10-15T00:26:14.090Z,79.16
2018-10-15T00:28:42.239Z,79.43
2018-10-15T00:31:10.518Z,79.84
2018-10-15T00:33:38.789Z,78.93
2018-10-15T00:36:07.021Z,79.41
2018-10-15T00:38:35.164Z,80.29
2018-10-15T00:41:03.532Z,80.56
2018-10-15T00:43:31.692Z,81.19
2018-10-15T00:46:00.077Z,82.30
2018-10-15T00:48:28.286Z,82.82
2018-10-15T00:50:56.425Z,83.51
2018-10-15T00:53:24.636Z,83.32
2018-10-15T00:55:52.812Z,83.49
2018-10-15T00:58:20.952Z,83.31
2018-10-15T01:00:49.092Z,83.51
2018-10-15T01:03:17.326Z,83.83
2018-10-15T01:05:45.639Z,84.26
2018-10-15T01:08:13.932Z,84.36
2018-10-15T01:10:42.056Z,85.33
2018-10-15T01:13:10.189Z,85.67
2018-10-15T01:15:38.433Z,83.57
2018-10-15T01:18:06.707Z,83.48
2018-10-15T01:20:34.935Z,82.76
2018-10-15T01:23:03.188Z,82.43
2018-10-15T01:25:31.510Z,82.79
2018-10-15T01:27:59.691Z,82.45
2018-10-15T01:30:27.840Z,82.59
2018-10-15T01:32:56.091Z,82.99
2018-10-15T01:35:24.224Z,82.88
2018-10-15T01:37:52.384Z,83.41
2018-10-15T01:40:20.548Z,84.30
2018-10-15T01:42:48.774Z,83.66
2018-10-15T01:45:16.943Z,84.05
2018-10-15T01:47:45.099Z,83.86
2018-10-15T01:50:13.472Z,84.41
2018-10-15T01:52:41.651Z,85.70
2018-10-15T01:55:09.901Z,85.99
2018-10-15T01:57:38.200Z,85.47
2018-10-15T02:00:07.334Z,85.76
2018-10-15T02:02:35.570Z,86.43
2018-10-15T02:05:03.769Z,86.47
2018-10-15T02:07:31.891Z,86.57
2018-10-15T02:10:00.053Z,86.45
2018-10-15T02:12:28.285Z,86.86
2018-10-15T02:14:56.398Z,87.10
2018-10-15T02:17:24.539Z,86.82
2018-10-15T02:19:52.735Z,86.66
2018-10-15T02:22:20.881Z,86.83
2018-10-15T02:24:49.027Z,86.96
2018-10-15T02:27:17.313Z,87.21
2018-10-15T02:29:45.501Z,87.41
2018-10-15T02:32:13.664Z,87.77
2018-10-15T02:34:42.176Z,88.40
2018-10-15T02:37:11.156Z,88.61
2018-10-15T02:39:39.292Z,88.93
2018-10-15T02:42:07.466Z,89.56
2018-10-15T02:44:35.623Z,89.39
2018-10-15T02:47:03.955Z,89.42
2018-10-15T02:49:32.091Z,90.48
2018-10-15T02:52:00.336Z,90.42
2018-10-15T02:54:28.633Z,89.88
2018-10-15T02:56:57.125Z,89.34
2018-10-15T02:59:25.272Z,88.23
2018-10-15T03:01:53.395Z,88.47
2018-10-15T03:04:21.647Z,88.82
2018-10-15T03:06:49.870Z,89.13
2018-10-15T03:09:18.215Z,89.73
2018-10-15T03:11:46.507Z,90.16
2018-10-15T03:14:14.692Z,90.46
2018-10-15T03:16:42.848Z,90.70
2018-10-15T03:19:11.039Z,91.05
2018-10-15T03:21:39.324Z,91.50
2018-10-15T03:24:07.505Z,91.56
2018-10-15T03:26:35.721Z,90.12
2018-10-15T03:29:04.047Z,89.13
2018-10-15T03:31:32.226Z,88.51
2018-10-15T03:34:00.404Z,88.35
2018-10-15T03:36:28.554Z,88.97
2018-10-15T03:38:56.844Z,90.27
2018-10-15T03:41:25.056Z,90.94
2018-10-15T03:43:53.442Z,91.13
2018-10-15T03:46:21.658Z,91.19
2018-10-15T03:48:49.895Z,90.82
2018-10-15T03:51:18.123Z,91.03
2018-10-15T03:53:46.515Z,91.11
2018-10-15T03:56:14.752Z,90.63
2018-10-15T03:58:42.956Z,90.17
2018-10-15T04:01:11.249Z,90.22
2018-10-15T04:03:39.423Z,90.87
2018-10-15T04:06:07.587Z,91.17
2018-10-15T04:08:36.142Z,91.35
2018-10-15T04:11:04.276Z,91.90
2018-10-15T04:13:32.491Z,91.67
2018-10-15T04:16:00.749Z,91.81
2018-10-15T04:18:28.883Z,91.95
2018-10-15T04:20:57.014Z,92.23
2018-10-15T04:23:25.219Z,92.78
2018-10-15T04:25:53.395Z,93.18
2018-10-15T04:28:21.632Z,93.76
2018-10-15T04:30:49.789Z,93.83
2018-10-15T04:33:17.931Z,93.62
2018-10-15T04:35:46.078Z,93.37
2018-10-15T04:38:14.323Z,93.56
2018-10-15T04:40:42.712Z,94.47
2018-10-15T04:43:10.925Z,93.22
2018-10-15T04:45:39.184Z,92.43
2018-10-15T04:48:07.547Z,92.23
2018-10-15T04:50:35.667Z,92.80
2018-10-15T04:53:03.919Z,92.01
2018-10-15T04:55:32.116Z,91.66
2018-10-15T04:58:00.431Z,91.38
2018-10-15T05:00:28.685Z,91.32
2018-10-15T05:02:56.707Z,91.37
2018-10-15T05:05:24.993Z,93.46
2018-10-15T05:07:53.203Z,95.43
2018-10-15T05:10:21.396Z,95.82
2018-10-15T05:12:49.523Z,97.08
2018-10-15T05:15:17.675Z,97.21
2018-10-15T05:17:45.847Z,97.30
2018-10-15T05:20:14.063Z,96.95
2018-10-15T05:22:42.276Z,96.29
2018-10-15T05:25:10.516Z,95.04
2018-10-15T05:27:38.668Z,94.62
2018-10-15T05:30:07.727Z,94.10
2018-10-15T05:32:35.999Z,93.49
2018-10-15T05:35:05.063Z,93.85
2018-10-15T05:37:33.268Z,94.05
2018-10-15T05:40:01.423Z,93.93
2018-10-15T05:42:29.657Z,94.61
2018-10-15T05:44:57.841Z,94.20
2018-10-15T05:47:25.983Z,94.21
2018-10-15T05:49:54.140Z,93.93
2018-10-15T05:52:22.308Z,94.08
2018-10-15T05:54:50.564Z,93.37
2018-10-15T05:57:19.339Z,92.80
2018-10-15T05:59:47.532Z,92.90
2018-10-15T06:02:15.676Z,93.21
2018-10-15T06:04:43.864Z,93.10
2018-10-15T06:07:12.083Z,93.28
2018-10-15T06:09:40.291Z,93.36
2018-10-15T06:12:08.621Z,93.39
2018-10-15T06:14:36.767Z,93.44
2018-10-15T06:17:05.155Z,92.88
2018-10-15T06:19:33.304Z,92.71
2018-10-15T06:22:01.573Z,92.83
2018-10-15T06:24:29.848Z,92.46
2018-10-15T06:26:58.097Z,92.77
2018-10-15T06:29:26.225Z,92.30
2018-10-15T06:31:54.476Z,91.31
2018-10-15T06:34:22.885Z,90.31
2018-10-15T06:36:51.297Z,90.23
2018-10-15T06:39:19.558Z,90.23
2018-10-15T06:41:47.587Z,90.50
2018-10-15T06:44:15.828Z,90.17
2018-10-15T06:46:43.948Z,90.05
2018-10-15T06:49:12.125Z,89.47
2018-10-15T06:51:40.311Z,88.94
2018-10-15T06:54:08.497Z,88.64
2018-10-15T06:56:36.711Z,88.52
2018-10-15T06:59:04.899Z,88.09
2018-10-15T07:01:33.126Z,86.88
2018-10-15T07:04:01.315Z,86.48
2018-10-15T07:06:29.743Z,86.05
2018-10-15T07:09:07.571Z,85.58
2018-10-15T07:11:35.642Z,85.60
2018-10-15T07:14:04.040Z,85.35
2018-10-15T07:16:32.104Z,85.53
2018-10-15T07:19:00.567Z,85.08
2018-10-15T07:21:28.796Z,84.49
2018-10-15T07:23:57.027Z,83.49
2018-10-15T07:26:25.219Z,82.48
2018-10-15T07:28:53.653Z,82.31
2018-10-15T07:31:21.841Z,81.84
2018-10-15T07:33:50.124Z,80.66
2018-10-15T07:36:18.338Z,79.50
2018-10-15T07:38:46.472Z,79.25
2018-10-15T07:41:14.855Z,79.92
2018-10-15T07:43:43.040Z,80.25
2018-10-15T07:46:11.237Z,79.63
2018-10-15T07:48:39.606Z,78.34
2018-10-15T07:51:07.748Z,78.66
2018-10-15T07:53:35.947Z,78.91
2018-10-15T07:56:04.175Z,79.37
2018-10-15T07:58:32.294Z,79.17
2018-10-15T08:01:00.458Z,78.68
2018-10-15T08:03:28.580Z,78.72
2018-10-15T08:05:56.731Z,77.91
2018-10-15T08:08:25.010Z,77.94
2018-10-15T08:10:53.088Z,76.48
2018-10-15T08:13:21.256Z,75.42
2018-10-15T08:15:49.439Z,75.66
2018-10-15T08:18:17.564Z,74.62
2018-10-15T08:20:45.830Z,74.08
2018-10-15T08:23:13.894Z,73.77
2018-10-15T08:25:42.094Z,72.13
2018-10-15T08:28:10.353Z,71.46
2018-10-15T08:30:38.451Z,71.28
2018-10-15T08:33:06.757Z,70.94
2018-10-15T08:35:35.224Z,70.93
2018-10-15T08:38:03.651Z,69.62
2018-10-15T08:40:32.264Z,68.82
2018-10-15T08:43:00.755Z,68.79
2018-10-15T08:45:29.015Z,67.42
2018-10-15T08:47:57.195Z,67.30
2018-10-15T08:50:26.067Z,66.74
2018-10-15T08:52:54.229Z,66.94
2018-10-15T08:55:22.376Z,65.86
2018-10-15T08:57:50.918Z,66.60
2018-10-15T09:00:20.969Z,66.03
2018-10-15T09:02:49.546Z,65.13
2018-10-15T09:05:18.047Z,64.70
2018-10-15T09:07:47.094Z,63.94
2018-10-15T09:10:16.250Z,64.49
2018-10-15T09:12:44.684Z,63.17
2018-10-15T09:15:16.265Z,62.54
2018-10-15T09:17:44.470Z,61.85
2018-10-15T09:20:12.599Z,61.58
2018-10-15T09:22:41.992Z,61.92
2018-10-15T09:25:12.197Z,61.73
2018-10-15T09:27:40.456Z,62.23
2018-10-15T09:30:10.660Z,61.49
2018-10-15T09:32:39.238Z,61.21
2018-10-15T09:35:08.216Z,60.77
2018-10-15T09:37:36.551Z,60.48
2018-10-15T09:40:05.025Z,60.23
2018-10-15T09:42:33.160Z,59.51
2018-10-15T09:45:01.445Z,60.51
2018-10-15T09:47:29.816Z,59.85
2018-10-15T09:49:58.232Z,59.74
2018-10-15T09:52:26.368Z,58.41
2018-10-15T09:54:54.782Z,58.61
2018-10-15T09:57:23.545Z,58.15
2018-10-15T09:59:51.775Z,57.94
2018-10-15T10:02:19.996Z,57.35
2018-10-15T10:04:48.203Z,57.24
2018-10-15T10:07:16.413Z,57.15
2018-10-15T10:09:44.492Z,56.74
2018-10-15T10:12:12.744Z,57.29
2018-10-15T10:14:41.319Z,56.63
2018-10-15T10:17:09.514Z,55.68
2018-10-15T10:19:37.892Z,55.16
2018-10-15T10:22:06.228Z,55.58
2018-10-15T10:24:34.590Z,55.99
2018-10-15T10:27:02.927Z,55.39
2018-10-15T10:29:31.063Z,54.62
2018-10-15T10:31:59.406Z,54.30
2018-10-15T10:36:05.589Z,54.99
2018-10-15T10:38:38.480Z,53.87
2018-10-15T10:41:06.801Z,55.28
2018-10-15T10:43:35.140Z,54.72
2018-10-15T10:46:03.921Z,55.23
2018-10-15T10:48:32.398Z,53.24
2018-10-15T10:51:00.797Z,53.36
2018-10-15T10:53:29.542Z,52.73
2018-10-15T10:55:57.844Z,53.45
2018-10-15T10:58:26.381Z,52.36
2018-10-15T11:00:54.605Z,52.30
2018-10-15T11:03:23.037Z,52.64
2018-10-15T11:05:51.694Z,51.81
2018-10-15T11:08:20.521Z,52.17
2018-10-15T11:10:48.936Z,51.99
2018-10-15T11:13:17.339Z,52.28
2018-10-15T11:15:45.815Z,51.84
2018-10-15T11:18:14.118Z,52.10
2018-10-15T11:20:42.532Z,51.40
2018-10-15T11:23:10.968Z,50.83
2018-10-15T11:25:39.200Z,51.02
2018-10-15T11:28:07.392Z,50.88
2018-10-15T11:30:35.726Z,51.21
2018-10-15T11:33:03.992Z,50.87
2018-10-15T11:35:32.434Z,50.46
2018-10-15T11:38:00.889Z,50.34
2018-10-15T11:40:29.188Z,49.92
2018-10-15T11:42:57.725Z,50.13
2018-10-15T11:45:26.119Z,49.26
2018-10-15T11:47:54.244Z,49.99
2018-10-15T11:50:22.632Z,50.16
2018-10-15T11:52:51.102Z,49.12
2018-10-15T11:55:19.500Z,49.67
2018-10-15T11:57:47.892Z,48.97
2018-10-15T12:00:17.051Z,48.19
2018-10-15T12:02:46.565Z,48.82
2018-10-15T12:05:14.796Z,48.65
2018-10-15T12:07:43.025Z,48.73
2018-10-15T12:10:12.644Z,47.41
2018-10-15T12:12:41.145Z,47.59
2018-10-15T12:15:10.673Z,47.69
2018-10-15T12:17:39.672Z,48.24
2018-10-15T12:20:09.172Z,47.59
2018-10-15T12:22:37.718Z,48.19
2018-10-15T12:25:07.358Z,47.51
2018-10-15T12:27:35.961Z,47.54
2018-10-15T12:30:04.380Z,46.99
2018-10-15T12:32:32.771Z,47.00
2018-10-15T12:35:01.031Z,47.05
2018-10-15T12:37:29.397Z,47.27
2018-10-15T12:39:57.849Z,46.13
2018-10-15T12:42:26.255Z,46.02
2018-10-15T12:44:54.759Z,46.20
2018-10-15T12:47:23.343Z,45.83
2018-10-15T12:49:51.755Z,44.45
2018-10-15T12:52:20.222Z,45.07
2018-10-15T12:54:48.680Z,45.16
2018-10-15T12:57:17.220Z,44.61
2018-10-15T12:59:45.546Z,44.97
2018-10-15T13:02:13.819Z,44.67
2018-10-15T13:04:42.391Z,44.88
2018-10-15T13:07:10.773Z,45.11
2018-10-15T13:09:39.255Z,44.20
2018-10-15T13:12:07.656Z,43.35
2018-10-15T13:14:36.124Z,42.81
2018-10-15T13:17:04.668Z,43.69
2018-10-15T13:19:33.688Z,43.08
2018-10-15T13:22:02.194Z,43.08
2018-10-15T13:24:30.578Z,41.26
2018-10-15T13:26:58.723Z,40.98
2018-10-15T13:29:26.950Z,41.71
2018-10-15T13:31:55.490Z,41.89
2018-10-15T13:34:24.012Z,41.42
2018-10-15T13:36:52.387Z,40.92
2018-10-15T13:39:20.815Z,40.60
2018-10-15T13:41:49.242Z,41.00
2018-10-15T13:44:17.497Z,41.42
2018-10-15T13:46:45.772Z,41.73
2018-10-15T13:49:13.961Z,40.84
2018-10-15T13:51:42.397Z,40.51
2018-10-15T13:54:10.728Z,39.43
2018-10-15T13:56:39.048Z,40.73
2018-10-15T13:59:07.435Z,40.95
2018-10-15T14:01:35.804Z,40.46
2018-10-15T14:04:05.458Z,39.67
2018-10-15T14:06:34.549Z,40.36
2018-10-15T14:09:03.044Z,40.64
2018-10-15T14:11:31.424Z,40.62
2018-10-15T14:13:59.579Z,40.03
2018-10-15T14:16:28.084Z,40.49
2018-10-15T14:18:56.312Z,40.49
2018-10-15T14:21:24.896Z,39.77
2018-10-15T14:23:53.191Z,39.94
2018-10-15T14:26:21.379Z,39.51
2018-10-15T14:28:50.076Z,39.43
2018-10-15T14:31:18.518Z,38.74
2018-10-15T14:33:46.951Z,38.81
2018-10-15T14:36:15.239Z,39.45
2018-10-15T14:38:43.651Z,38.33
2018-10-15T14:41:11.861Z,38.94
2018-10-15T14:43:40.313Z,39.64
2018-10-15T14:46:08.727Z,39.10
2018-10-15T14:48:37.160Z,39.03
2018-10-15T14:51:06.872Z,39.65
2018-10-15T14:53:36.214Z,39.14
2018-10-15T14:56:04.722Z,38.62
2018-10-15T14:58:33.109Z,38.62
2018-10-15T15:01:01.581Z,38.75
2018-10-15T15:03:29.891Z,38.34
2018-10-15T15:05:58.244Z,39.11
2018-10-15T15:08:26.660Z,38.91
2018-10-15T15:11:06.446Z,38.59
2018-10-15T15:13:45.965Z,38.04
2018-10-15T15:16:14.091Z,37.33
2018-10-15T15:18:42.354Z,37.35
2018-10-15T15:21:10.502Z,37.63
2018-10-15T15:23:38.906Z,37.51
2018-10-15T15:26:07.277Z,38.16
2018-10-15T15:28:35.543Z,38.17
2018-10-15T15:31:03.927Z,37.81
2018-10-15T15:33:32.660Z,37.71
2018-10-15T15:36:01.015Z,37.73
2018-10-15T15:38:29.274Z,37.85
2018-10-15T15:40:58.100Z,38.04
2018-10-15T15:43:26.492Z,37.64
2018-10-15T15:45:54.836Z,37.26
2018-10-15T15:48:23.003Z,38.02
2018-10-15T15:50:51.354Z,38.44
2018-10-15T15:53:19.543Z,38.67
2018-10-15T15:55:47.964Z,38.55
2018-10-15T15:58:16.408Z,39.06
2018-10-15T16:00:44.786Z,39.92
2018-10-15T16:03:13.304Z,39.72
2018-10-15T16:05:41.819Z,39.27
2018-10-15T16:08:10.277Z,39.79
2018-10-15T16:10:38.707Z,39.37
2018-10-15T16:13:06.997Z,40.65
2018-10-15T16:15:35.326Z,40.88
2018-10-15T16:18:03.660Z,41.83
2018-10-15T16:20:31.928Z,42.46
2018-10-15T16:23:00.211Z,42.90
2018-10-15T16:25:28.685Z,43.96
2018-10-15T16:27:57.103Z,43.68
2018-10-15T16:30:25.411Z,43.87
2018-10-15T16:32:53.811Z,43.94
2018-10-15T16:35:21.956Z,44.61
2018-10-15T16:37:50.420Z,45.04
2018-10-15T16:40:18.764Z,45.08
2018-10-15T16:42:47.518Z,45.39
2018-10-15T16:45:16.010Z,46.43
2018-10-15T16:47:44.474Z,46.18
2018-10-15T16:50:14.421Z,48.06
2018-10-15T16:52:49.149Z,48.16
2018-10-15T16:55:17.304Z,48.96
2018-10-15T16:57:46.023Z,51.73
2018-10-15T17:00:14.936Z,51.46
2018-10-15T17:02:43.460Z,51.40
2018-10-15T17:05:13.058Z,50.82
2018-10-15T17:07:41.552Z,51.71
2018-10-15T17:10:12.096Z,51.47
2018-10-15T17:12:40.793Z,51.31
2018-10-15T17:15:11.640Z,52.45
2018-10-15T17:17:40.667Z,51.63
2018-10-15T17:20:09.646Z,50.63
2018-10-15T17:22:37.868Z,51.76
2018-10-15T17:25:06.599Z,51.25
2018-10-15T17:27:34.864Z,51.62
2018-10-15T17:30:03.202Z,51.81
2018-10-15T17:32:31.520Z,52.59
2018-10-15T17:34:59.724Z,53.19
2018-10-15T17:37:28.058Z,53.31
2018-10-15T17:39:56.454Z,54.28
2018-10-15T17:42:24.963Z,54.82
2018-10-15T17:44:53.447Z,55.53
2018-10-15T17:47:21.817Z,56.44
2018-10-15T17:49:50.233Z,57.10
2018-10-15T17:52:18.781Z,58.25
2018-10-15T17:54:47.064Z,56.93
2018-10-15T17:57:15.492Z,59.74
2018-10-15T17:59:43.751Z,60.63
2018-10-15T18:02:12.547Z,61.49
2018-10-15T18:04:40.969Z,61.97
2018-10-15T18:07:09.357Z,61.61
2018-10-15T18:09:37.758Z,62.70
2018-10-15T18:12:06.381Z,62.52
2018-10-15T18:14:34.676Z,62.62
2018-10-15T18:17:03.154Z,63.61
2018-10-15T18:19:31.501Z,63.44
2018-10-15T18:21:59.877Z,64.29
2018-10-15T18:24:28.160Z,63.61
2018-10-15T18:26:56.360Z,64.29
2018-10-15T18:29:24.676Z,64.51
2018-10-15T18:31:52.890Z,64.06
2018-10-15T18:34:21.127Z,65.44
2018-10-15T18:36:49.559Z,65.53
2018-10-15T18:39:17.792Z,65.81
2018-10-15T18:41:46.190Z,66.91
2018-10-15T18:44:14.301Z,67.35
2018-10-15T18:46:42.549Z,66.97
2018-10-15T18:49:11.087Z,67.97
2018-10-15T18:51:39.367Z,68.80
2018-10-15T18:54:07.968Z,69.37
2018-10-15T18:56:36.219Z,69.40
2018-10-15T18:59:04.399Z,69.71
2018-10-15T19:01:32.524Z,70.64
2018-10-15T19:04:00.653Z,70.55
2018-10-15T19:06:28.821Z,70.47
2018-10-15T19:08:57.015Z,70.91
2018-10-15T19:11:25.165Z,71.93
2018-10-15T19:13:53.479Z,71.43
2018-10-15T19:16:21.714Z,72.82
2018-10-15T19:18:49.999Z,71.63
2018-10-15T19:21:18.153Z,72.58
2018-10-15T19:23:46.288Z,73.68
2018-10-15T19:26:14.507Z,73.64
2018-10-15T19:28:42.566Z,74.21
2018-10-15T19:31:10.791Z,74.23
2018-10-15T19:33:39.067Z,74.51
2018-10-15T19:36:07.594Z,74.96
2018-10-15T19:38:35.810Z,74.61
2018-10-15T19:41:04.270Z,75.46
2018-10-15T19:43:32.576Z,76.04
2018-10-15T19:46:00.751Z,76.41
2018-10-15T19:48:28.894Z,76.38
2018-10-15T19:50:57.139Z,77.70
2018-10-15T19:53:25.411Z,77.58
2018-10-15T19:55:53.546Z,77.19
2018-10-15T19:58:21.969Z,77.77
2018-10-15T20:00:50.131Z,77.82
2018-10-15T20:03:18.440Z,77.91
2018-10-15T20:05:47.368Z,78.38
2018-10-15T20:08:15.528Z,78.36
2018-10-15T20:10:43.828Z,78.23
2018-10-15T20:13:12.108Z,78.26
2018-10-15T20:15:40.362Z,78.46
2018-10-15T20:18:08.656Z,79.52
2018-10-15T20:20:36.767Z,79.95
2018-10-15T20:23:05.248Z,79.93
2018-10-15T20:25:33.529Z,80.27
2018-10-15T20:28:01.758Z,79.93
2018-10-15T20:30:29.914Z,79.76
2018-10-15T20:32:58.153Z,80.01
2018-10-15T20:35:26.446Z,79.76
2018-10-15T20:37:54.771Z,80.15
2018-10-15T20:40:23.001Z,80.03
2018-10-15T20:42:51.209Z,80.63
2018-10-15T20:45:19.398Z,80.29
2018-10-15T20:47:47.715Z,80.50
2018-10-15T20:50:15.991Z,80.85
2018-10-15T20:52:44.247Z,80.90
2018-10-15T20:55:12.412Z,81.56
2018-10-15T20:57:41.302Z,81.51
2018-10-15T21:00:10.803Z,82.33
2018-10-15T21:02:39.496Z,82.76
2018-10-15T21:05:07.892Z,82.96
2018-10-15T21:07:36.140Z,83.56
2018-10-15T21:10:04.375Z,83.08
2018-10-15T21:12:32.607Z,83.43
2018-10-15T21:15:00.728Z,82.86
2018-10-15T21:17:28.981Z,82.39
2018-10-15T21:19:57.278Z,82.57
2018-10-15T21:22:25.561Z,83.06
2018-10-15T21:24:53.759Z,83.80
2018-10-15T21:27:21.904Z,83.80
2018-10-15T21:29:51.029Z,84.96
2018-10-15T21:32:19.255Z,85.25
2018-10-15T21:34:47.599Z,84.86
2018-10-15T21:37:15.779Z,85.22
2018-10-15T21:39:44.076Z,85.76
2018-10-15T21:42:12.352Z,86.03
2018-10-15T21:44:47.384Z,86.21
2018-10-15T21:47:15.704Z,86.48
2018-10-15T21:49:44.107Z,85.74
2018-10-15T21:52:12.482Z,85.27
2018-10-15T21:54:40.889Z,84.86
2018-10-15T21:57:09.172Z,85.05
2018-10-15T22:02:37.808Z,85.45
2018-10-15T22:05:06.720Z,85.13
2018-10-15T22:07:34.820Z,85.63
2018-10-15T22:10:08.460Z,85.48
2018-10-15T22:12:36.994Z,85.55
2018-10-15T22:15:06.229Z,85.71
2018-10-15T22:17:34.392Z,85.94
2018-10-15T22:20:02.700Z,86.37
2018-10-15T22:22:30.979Z,86.97
2018-10-15T22:24:59.308Z,87.46
2018-10-15T22:27:27.548Z,87.77
2018-10-15T22:29:55.760Z,87.32
2018-10-15T22:32:24.377Z,87.07
2018-10-15T22:34:52.540Z,87.07
2018-10-15T22:37:20.695Z,87.69
2018-10-15T22:39:48.896Z,87.86
2018-10-15T22:42:17.058Z,88.27
2018-10-15T22:44:45.244Z,89.25
2018-10-15T22:47:13.490Z,89.47
2018-10-15T22:49:41.635Z,89.55
2018-10-15T22:52:09.991Z,89.63
2018-10-15T22:54:38.478Z,90.01
2018-10-15T22:57:06.744Z,89.75
2018-10-15T22:59:35.049Z,89.56
2018-10-15T23:02:03.404Z,89.33
2018-10-15T23:04:31.559Z,89.17
2018-10-15T23:06:59.687Z,89.22
2018-10-15T23:09:28.501Z,89.56
2018-10-15T23:11:56.632Z,89.66
2018-10-15T23:14:25.245Z,90.20
2018-10-15T23:16:53.479Z,89.59
2018-10-15T23:19:21.653Z,88.38
2018-10-15T23:21:49.859Z,88.70
2018-10-15T23:24:18.055Z,89.10
2018-10-15T23:26:46.261Z,89.59
2018-10-15T23:29:14.430Z,89.40
2018-10-15T23:31:42.785Z,90.09
2018-10-15T23:34:10.928Z,90.16
2018-10-15T23:36:39.078Z,90.02
2018-10-15T23:39:09.496Z,90.28
2018-10-15T23:41:37.646Z,90.57
2018-10-15T23:44:05.879Z,90.80
2018-10-15T23:46:34.112Z,89.92
2018-10-15T23:49:02.286Z,89.34
2018-10-15T23:51:30.452Z,89.44
2018-10-15T23:53:58.608Z,89.44
2018-10-15T23:56:26.936Z,89.49
2018-10-15T23:58:55.385Z,89.27
